Time;durP1;ratioP1;P1;durP2;ratioP2;P2;SDS_P1;SDS_P2;PMS_P1;PMS_P2;Temp;Humidity;BMP_temperature;BMP_pressure;BME280_temperature;BME280_humidity;BME280_pressure;Samples;Min_cycle;Max_cycle;Signal;HPM_P1;HPM_P2
2022/05/14 00:02:10;;;;;;;11.73;4.87;;;11.90;99.90;;;;;;5096209;28;20189;-51
2022/05/14 00:04:36;;;;;;;16.17;4.37;;;11.90;99.90;;;;;;5105773;28;20429;-51
2022/05/14 00:07:02;;;;;;;12.77;4.47;;;11.90;99.90;;;;;;5098691;28;20993;-51
2022/05/14 00:09:27;;;;;;;15.47;4.93;;;11.90;99.90;;;;;;5103724;28;20216;-51
2022/05/14 00:14:37;;;;;;;12.70;5.17;;;11.90;99.90;;;;;;5101568;28;20239;-50
2022/05/14 00:17:04;;;;;;;9.50;4.23;;;12.00;99.90;;;;;;5099427;28;20411;-51
2022/05/14 00:19:29;;;;;;;10.70;4.50;;;11.90;99.90;;;;;;5100303;28;20219;-51
2022/05/14 00:21:55;;;;;;;10.33;4.53;;;11.90;99.90;;;;;;5098442;28;20477;-51
2022/05/14 00:24:22;;;;;;;17.60;4.90;;;11.90;99.90;;;;;;5100396;28;20710;-50
2022/05/14 00:26:48;;;;;;;12.90;5.13;;;11.90;99.90;;;;;;5097430;28;20728;-50
2022/05/14 00:29:14;;;;;;;10.60;4.60;;;11.90;99.90;;;;;;5101271;28;20484;-51
2022/05/14 00:31:40;;;;;;;8.07;3.83;;;11.80;99.90;;;;;;5104199;28;20189;-51
2022/05/14 00:34:05;;;;;;;8.47;4.40;;;11.90;99.90;;;;;;5106024;28;20203;-51
2022/05/14 00:36:31;;;;;;;16.53;4.93;;;11.90;99.90;;;;;;5098524;28;20615;-50
2022/05/14 00:38:57;;;;;;;20.10;5.00;;;11.80;99.90;;;;;;5101950;28;20712;-51
2022/05/14 00:41:24;;;;;;;12.87;5.13;;;11.80;99.90;;;;;;5096488;28;20427;-51
2022/05/14 00:43:59;;;;;;;12.60;5.00;;;11.80;99.90;;;;;;5103701;28;20185;-51
2022/05/14 00:46:41;;;;;;;16.43;5.40;;;11.80;99.90;;;;;;5098644;28;20471;-51
2022/05/14 00:49:08;;;;;;;11.77;5.50;;;11.70;99.90;;;;;;5099872;28;20414;-50
2022/05/14 00:51:35;;;;;;;16.50;5.90;;;11.80;99.90;;;;;;5104125;28;20494;-51
2022/05/14 00:54:07;;;;;;;20.67;5.60;;;11.80;99.90;;;;;;5107153;28;20897;-51
2022/05/14 00:56:39;;;;;;;17.63;5.30;;;11.80;99.90;;;;;;5099525;28;20498;-51
2022/05/14 00:59:09;;;;;;;14.23;5.80;;;11.80;99.90;;;;;;5094767;28;20931;-51
2022/05/14 01:01:36;;;;;;;13.47;5.40;;;11.80;99.90;;;;;;5098507;28;21097;-51
2022/05/14 01:04:01;;;;;;;12.70;5.80;;;11.70;99.90;;;;;;5101162;28;20435;-51
2022/05/14 01:06:31;;;;;;;8.83;5.10;;;11.80;99.90;;;;;;5102413;28;20453;-51
2022/05/14 01:08:59;;;;;;;23.37;6.30;;;11.80;99.90;;;;;;5092624;28;20939;-51
2022/05/14 01:11:28;;;;;;;12.03;5.53;;;11.80;99.90;;;;;;5105910;28;20430;-51
2022/05/14 01:13:54;;;;;;;16.80;6.40;;;11.80;99.90;;;;;;5099762;28;20469;-51
2022/05/14 01:16:20;;;;;;;14.97;6.77;;;11.80;99.90;;;;;;5105899;28;20427;-51
2022/05/14 01:18:46;;;;;;;15.97;6.90;;;11.90;99.90;;;;;;5098421;28;20520;-53
2022/05/14 01:21:38;;;;;;;10.73;5.67;;;11.90;99.90;;;;;;5107731;28;21052;-54
2022/05/14 01:27:25;;;;;;;19.97;6.53;;;11.80;99.90;;;;;;5063016;28;20992;-54
2022/05/14 01:29:51;;;;;;;15.00;6.50;;;11.80;99.90;;;;;;5093941;28;21232;-55
2022/05/14 01:32:17;;;;;;;19.90;7.60;;;11.80;1.00;;;;;;5106337;28;20423;-54
2022/05/14 01:34:44;;;;;;;15.23;6.00;;;11.80;1.00;;;;;;5104474;28;20466;-54
2022/05/14 01:37:10;;;;;;;12.73;6.50;;;11.70;1.00;;;;;;5102852;28;20185;-53
2022/05/14 01:39:36;;;;;;;14.03;6.60;;;11.70;1.00;;;;;;5104534;28;20446;-54
2022/05/14 01:42:02;;;;;;;11.37;5.87;;;11.70;1.00;;;;;;5103913;28;20431;-52
2022/05/14 01:44:28;;;;;;;13.10;6.43;;;11.70;1.00;;;;;;5103173;28;20445;-54
2022/05/14 01:46:54;;;;;;;11.97;6.40;;;11.80;1.00;;;;;;5102985;28;20419;-54
2022/05/14 01:49:19;;;;;;;14.07;6.57;;;11.80;1.00;;;;;;5105079;28;20207;-54
2022/05/14 01:51:45;;;;;;;13.10;6.37;;;11.80;1.00;;;;;;5095377;28;20193;-54
2022/05/14 01:54:11;;;;;;;13.97;7.40;;;11.80;1.00;;;;;;5099167;28;20219;-54
2022/05/14 01:56:36;;;;;;;19.73;7.53;;;11.80;1.00;;;;;;5095166;28;20204;-53
2022/05/14 01:59:02;;;;;;;21.93;6.60;;;11.80;1.00;;;;;;5098395;28;20189;-54
2022/05/14 02:01:34;;;;;;;16.57;6.63;;;11.80;1.00;;;;;;5100477;28;20181;-54
2022/05/14 02:04:02;;;;;;;19.27;6.80;;;11.90;1.00;;;;;;5103939;28;20271;-55
2022/05/14 02:06:29;;;;;;;17.93;7.00;;;11.90;1.00;;;;;;5104103;28;20426;-55
2022/05/14 02:08:56;;;;;;;14.80;6.20;;;11.80;1.00;;;;;;5104709;28;20434;-54
2022/05/14 02:11:22;;;;;;;12.80;6.10;;;11.80;1.00;;;;;;5103971;28;20438;-54
2022/05/14 02:13:50;;;;;;;16.17;6.47;;;11.80;1.00;;;;;;5106562;28;20433;-54
2022/05/14 02:16:17;;;;;;;13.73;6.47;;;11.70;1.00;;;;;;5104020;28;20426;-54
2022/05/14 02:18:43;;;;;;;15.53;6.80;;;11.70;1.00;;;;;;5101867;28;20545;-55
2022/05/14 02:21:10;;;;;;;21.50;7.03;;;11.60;1.00;;;;;;5102254;28;20995;-54
2022/05/14 02:23:38;;;;;;;11.87;6.17;;;11.70;1.00;;;;;;5102944;28;20590;-55
2022/05/14 02:26:05;;;;;;;13.30;5.93;;;11.70;1.00;;;;;;5098926;28;20474;-54
2022/05/14 02:28:31;;;;;;;16.37;7.03;;;11.70;1.00;;;;;;5104849;28;20426;-54
2022/05/14 02:30:56;;;;;;;17.10;6.80;;;11.60;1.00;;;;;;5098663;28;20517;-54
2022/05/14 02:33:23;;;;;;;11.17;6.87;;;11.70;1.00;;;;;;5097707;28;20418;-54
2022/05/14 02:35:48;;;;;;;17.67;6.90;;;11.60;1.00;;;;;;5099254;28;20231;-54
2022/05/14 02:38:15;;;;;;;14.20;6.90;;;11.60;1.00;;;;;;5105953;28;20434;-54
2022/05/14 02:40:42;;;;;;;20.17;6.47;;;11.60;1.00;;;;;;5099259;28;20254;-55
2022/05/14 02:43:07;;;;;;;14.77;7.20;;;11.60;1.00;;;;;;5101264;28;20433;-54
2022/05/14 02:45:33;;;;;;;19.87;6.60;;;11.60;1.00;;;;;;5102020;28;20833;-55
2022/05/14 02:47:59;;;;;;;15.20;6.57;;;11.70;1.00;;;;;;5110733;28;20188;-54
2022/05/14 02:50:24;;;;;;;20.30;7.47;;;11.70;1.00;;;;;;5106589;28;20200;-54
2022/05/14 02:52:51;;;;;;;15.33;6.90;;;11.80;1.00;;;;;;5104626;28;20652;-54
2022/05/14 02:55:16;;;;;;;20.47;8.10;;;11.80;1.00;;;;;;5106688;28;20292;-54
2022/05/14 02:57:42;;;;;;;18.97;7.40;;;11.80;1.00;;;;;;5104039;28;20560;-53
2022/05/14 03:00:10;;;;;;;16.07;7.63;;;11.70;1.00;;;;;;5106224;28;20185;-54
2022/05/14 03:02:36;;;;;;;21.17;7.67;;;11.70;1.00;;;;;;5104173;28;20195;-53
2022/05/14 03:05:03;;;;;;;15.83;7.10;;;11.80;1.00;;;;;;5108049;28;21101;-54
2022/05/14 03:07:29;;;;;;;16.73;6.67;;;11.70;1.00;;;;;;5108271;28;20428;-54
2022/05/14 03:09:54;;;;;;;12.43;6.60;;;11.70;1.00;;;;;;5099842;28;20427;-54
2022/05/14 03:12:21;;;;;;;16.07;8.00;;;11.70;1.00;;;;;;5109851;28;20738;-54
2022/05/14 03:14:48;;;;;;;16.40;7.00;;;11.60;1.00;;;;;;5099866;28;20618;-55
2022/05/14 03:17:15;;;;;;;20.43;6.87;;;11.60;1.00;;;;;;5109080;28;20436;-54
2022/05/14 03:19:40;;;;;;;18.23;7.37;;;11.60;1.00;;;;;;5099162;28;20478;-55
2022/05/14 03:22:07;;;;;;;19.73;6.73;;;11.60;1.00;;;;;;5108244;28;20495;-54
2022/05/14 03:24:36;;;;;;;22.57;7.60;;;11.60;1.00;;;;;;5103441;28;20521;-55
2022/05/14 03:27:02;;;;;;;10.43;6.40;;;11.60;1.00;;;;;;5102532;28;20520;-54
2022/05/14 03:29:28;;;;;;;14.70;7.90;;;11.60;1.00;;;;;;5105101;28;20414;-54
2022/05/14 03:31:56;;;;;;;23.00;7.57;;;11.50;1.00;;;;;;5107602;28;20540;-55
2022/05/14 03:34:21;;;;;;;16.00;7.17;;;11.50;1.00;;;;;;5110061;28;20291;-54
2022/05/14 03:36:47;;;;;;;12.97;7.53;;;11.50;1.00;;;;;;5107919;27;20916;-54
2022/05/14 03:39:12;;;;;;;17.33;7.60;;;11.50;1.00;;;;;;5107666;28;20204;-54
2022/05/14 03:41:38;;;;;;;21.23;7.20;;;11.50;1.00;;;;;;5099776;28;20197;-54
2022/05/14 03:44:04;;;;;;;19.97;7.80;;;11.50;1.00;;;;;;5110662;28;20196;-55
2022/05/14 03:46:29;;;;;;;15.23;7.10;;;11.50;1.00;;;;;;5098265;28;20189;-53
2022/05/14 03:48:55;;;;;;;15.23;7.23;;;11.40;1.00;;;;;;5101177;28;20950;-55
2022/05/14 03:51:21;;;;;;;17.30;7.40;;;11.40;1.00;;;;;;5107011;28;20218;-55
2022/05/14 03:53:47;;;;;;;16.67;6.77;;;11.30;1.00;;;;;;5104620;28;20947;-54
2022/05/14 03:56:13;;;;;;;17.63;7.60;;;11.30;1.00;;;;;;5104364;28;20283;-56
2022/05/14 03:58:39;;;;;;;19.03;8.07;;;11.30;1.00;;;;;;5107326;28;20536;-54
2022/05/14 04:01:05;;;;;;;12.40;6.23;;;11.30;1.00;;;;;;5108979;28;20542;-55
2022/05/14 04:03:33;;;;;;;19.17;7.67;;;11.30;1.00;;;;;;5104019;28;20207;-54
2022/05/14 04:05:59;;;;;;;14.03;6.93;;;11.40;1.00;;;;;;5103499;28;20441;-54
2022/05/14 04:08:26;;;;;;;20.00;6.73;;;11.40;1.00;;;;;;5104650;28;20820;-55
2022/05/14 04:10:51;;;;;;;16.90;7.40;;;11.40;1.00;;;;;;5105224;28;20196;-55
2022/05/14 04:13:17;;;;;;;12.40;7.07;;;11.40;1.00;;;;;;5104210;28;20438;-55
2022/05/14 04:15:43;;;;;;;19.90;7.20;;;11.40;1.00;;;;;;5108247;28;20311;-54
2022/05/14 04:18:09;;;;;;;17.77;8.17;;;11.40;1.00;;;;;;5106218;28;20188;-54
2022/05/14 04:20:35;;;;;;;22.13;7.60;;;11.40;1.00;;;;;;5102058;28;20236;-54
2022/05/14 04:23:02;;;;;;;19.93;7.73;;;11.40;1.00;;;;;;5104573;28;20445;-56
2022/05/14 04:25:28;;;;;;;11.33;7.17;;;11.30;1.00;;;;;;5107053;28;20440;-55
2022/05/14 04:27:53;;;;;;;13.67;7.40;;;11.40;1.00;;;;;;5100432;28;20442;-54
2022/05/14 04:30:19;;;;;;;16.80;7.10;;;11.40;1.00;;;;;;5108647;28;20279;-54
2022/05/14 04:32:45;;;;;;;16.90;8.27;;;11.50;1.00;;;;;;5105842;28;20275;-54
2022/05/14 04:35:13;;;;;;;19.20;7.43;;;11.50;1.00;;;;;;5101609;27;21045;-55
2022/05/14 04:37:38;;;;;;;22.00;8.00;;;11.60;1.00;;;;;;5099294;28;20193;-55
2022/05/14 04:40:05;;;;;;;13.43;6.60;;;11.70;1.00;;;;;;5104152;28;20487;-54
2022/05/14 04:42:31;;;;;;;21.80;7.90;;;11.70;1.00;;;;;;5096966;28;20192;-55
2022/05/14 04:44:57;;;;;;;23.30;7.90;;;11.80;1.00;;;;;;5105917;28;20434;-55
2022/05/14 04:47:22;;;;;;;19.10;7.87;;;11.70;1.00;;;;;;5099602;28;20606;-55
2022/05/14 04:49:48;;;;;;;16.13;7.50;;;11.70;1.00;;;;;;5105087;28;20562;-55
2022/05/14 04:52:15;;;;;;;20.87;7.50;;;11.80;1.00;;;;;;5106985;28;20323;-55
2022/05/14 04:54:41;;;;;;;19.90;7.87;;;11.80;1.00;;;;;;5098094;28;21285;-55
2022/05/14 04:57:07;;;;;;;18.90;7.90;;;11.80;1.00;;;;;;5106861;28;20453;-55
2022/05/14 04:59:33;;;;;;;16.17;9.10;;;11.90;1.00;;;;;;5099333;28;20441;-55
2022/05/14 05:04:44;;;;;;;22.53;7.97;;;11.90;1.00;;;;;;5102307;28;20274;-55
2022/05/14 05:07:10;;;;;;;28.93;8.73;;;12.00;1.00;;;;;;5106897;28;20442;-54
2022/05/14 05:09:36;;;;;;;13.27;7.00;;;12.00;1.00;;;;;;5096804;28;20196;-55
2022/05/14 05:12:03;;;;;;;21.33;8.87;;;12.00;1.00;;;;;;5104383;28;20519;-55
2022/05/14 05:14:28;;;;;;;31.03;8.10;;;12.00;1.00;;;;;;5096635;28;20480;-54
2022/05/14 05:16:54;;;;;;;27.10;9.00;;;12.00;1.00;;;;;;5102149;28;20442;-55
2022/05/14 05:19:19;;;;;;;20.53;8.17;;;12.00;1.00;;;;;;5096358;28;20223;-56
2022/05/14 05:21:46;;;;;;;19.47;7.80;;;12.10;1.00;;;;;;5102855;28;20618;-56
2022/05/14 05:24:11;;;;;;;20.87;7.50;;;12.10;1.00;;;;;;5100971;28;20667;-55
2022/05/14 05:26:38;;;;;;;19.10;7.43;;;12.20;1.00;;;;;;5102217;28;20457;-55
2022/05/14 05:29:04;;;;;;;19.97;8.40;;;12.20;1.00;;;;;;5100171;28;20192;-55
2022/05/14 05:31:31;;;;;;;20.33;8.43;;;12.30;1.00;;;;;;5107946;28;20441;-55
2022/05/14 05:33:57;;;;;;;21.93;8.83;;;12.40;1.00;;;;;;5105888;28;20438;-54
2022/05/14 05:36:23;;;;;;;29.50;8.37;;;12.30;1.00;;;;;;5100575;28;21027;-55
2022/05/14 05:38:51;;;;;;;20.10;7.83;;;12.40;1.00;;;;;;5100581;28;20521;-55
2022/05/14 05:41:17;;;;;;;21.23;8.40;;;12.40;1.00;;;;;;5100954;28;20208;-55
2022/05/14 05:43:42;;;;;;;22.17;8.30;;;12.40;1.00;;;;;;5103056;28;20909;-55
2022/05/14 05:46:09;;;;;;;30.37;8.93;;;12.40;1.00;;;;;;5100344;28;21079;-56
2022/05/14 05:48:35;;;;;;;23.27;8.33;;;12.60;1.00;;;;;;5097463;28;20303;-55
2022/05/14 05:51:00;;;;;;;34.43;8.40;;;12.60;1.00;;;;;;5105929;28;20525;-59
2022/05/14 05:56:46;;;;;;;22.13;7.90;;;12.70;1.00;;;;;;5108260;28;20196;-54
2022/05/14 05:58:55;;;;;;;21.77;7.73;;;12.80;1.00;;;;;;5097999;28;20417;-54
2022/05/14 06:01:21;;;;;;;30.50;8.50;;;12.90;1.00;;;;;;5101952;28;20860;-55
2022/05/14 06:03:48;;;;;;;28.87;8.30;;;13.00;1.00;;;;;;5101174;28;20271;-55
2022/05/14 06:06:14;;;;;;;24.33;8.50;;;13.20;1.00;;;;;;5101904;28;20316;-55
2022/05/14 06:08:40;;;;;;;26.93;7.63;;;13.30;1.00;;;;;;5100294;28;20449;-55
2022/05/14 06:11:06;;;;;;;19.97;8.37;;;13.40;1.00;;;;;;5101741;28;20443;-54
2022/05/14 06:13:32;;;;;;;28.17;8.23;;;13.40;1.00;;;;;;5103598;28;20282;-54
2022/05/14 06:15:59;;;;;;;26.80;9.17;;;13.50;1.00;;;;;;5099465;28;20677;-54
2022/05/14 06:18:26;;;;;;;23.07;8.50;;;13.50;1.00;;;;;;5096061;28;20450;-55
2022/05/14 06:20:51;;;;;;;26.27;8.20;;;13.50;1.00;;;;;;5101751;28;20488;-55
2022/05/14 06:23:17;;;;;;;17.80;7.20;;;13.70;1.00;;;;;;5103780;28;20437;-54
2022/05/14 06:25:43;;;;;;;22.07;7.90;;;13.80;1.00;;;;;;5107768;28;20203;-54
2022/05/14 06:28:08;;;;;;;26.53;7.67;;;13.90;99.90;;;;;;5100686;28;20295;-56
2022/05/14 06:30:35;;;;;;;27.70;8.77;;;14.10;99.90;;;;;;5101229;28;20261;-55
2022/05/14 06:33:05;;;;;;;28.90;8.23;;;14.20;99.90;;;;;;5103363;28;20191;-55
2022/05/14 06:35:32;;;;;;;29.73;8.43;;;14.20;99.90;;;;;;5102937;28;20492;-56
2022/05/14 06:37:58;;;;;;;23.73;7.70;;;14.30;99.90;;;;;;5096776;28;20438;-55
2022/05/14 06:40:24;;;;;;;21.30;7.60;;;14.10;99.90;;;;;;5098800;28;20438;-54
2022/05/14 06:42:50;;;;;;;25.33;7.50;;;14.10;99.90;;;;;;5100502;28;20479;-55
2022/05/14 06:45:15;;;;;;;26.70;7.60;;;14.10;99.90;;;;;;5105832;28;20192;-54
2022/05/14 06:47:41;;;;;;;19.70;8.23;;;14.10;99.90;;;;;;5104121;28;20199;-55
2022/05/14 06:50:07;;;;;;;24.77;7.57;;;14.20;99.90;;;;;;5096676;28;20218;-55
2022/05/14 06:52:33;;;;;;;27.00;7.07;;;14.30;99.90;;;;;;5105663;28;20196;-54
2022/05/14 06:55:00;;;;;;;24.37;7.27;;;14.50;99.90;;;;;;5105990;28;20247;-55
2022/05/14 06:57:26;;;;;;;25.70;7.00;;;14.80;99.90;;;;;;5103844;28;20434;-56
2022/05/14 06:59:52;;;;;;;23.13;5.90;;;15.10;99.90;;;;;;5097591;28;20787;-55
2022/05/14 07:02:19;;;;;;;29.70;7.00;;;15.30;99.90;;;;;;5100160;28;20480;-55
2022/05/14 07:07:30;;;;;;;21.83;6.53;;;15.70;99.90;;;;;;5094333;28;20810;-55
2022/05/14 07:09:55;;;;;;;27.47;6.13;;;16.00;99.90;;;;;;5097420;28;20465;-53
2022/05/14 07:12:21;;;;;;;19.70;5.63;;;16.40;99.90;;;;;;5098389;28;20262;-54
2022/05/14 07:14:47;;;;;;;21.47;6.23;;;16.90;99.90;;;;;;5104491;28;20251;-54
2022/05/14 07:17:13;;;;;;;16.97;6.33;;;17.10;99.90;;;;;;5102158;28;20201;-54
2022/05/14 07:19:38;;;;;;;17.60;5.47;;;17.20;99.90;;;;;;5102913;28;20512;-54
2022/05/14 07:22:04;;;;;;;29.53;6.90;;;17.30;99.90;;;;;;5103517;28;20204;-53
2022/05/14 07:24:31;;;;;;;24.30;6.63;;;17.50;99.90;;;;;;5105824;28;20197;-54
2022/05/14 07:27:00;;;;;;;16.80;4.93;;;17.70;99.90;;;;;;5103016;28;20446;-54
2022/05/14 07:29:27;;;;;;;21.63;6.30;;;18.20;99.90;;;;;;5105433;28;20770;-55
2022/05/14 07:31:53;;;;;;;21.30;5.60;;;18.40;99.90;;;;;;5085337;28;20475;-55
2022/05/14 07:34:20;;;;;;;22.00;6.13;;;18.40;99.90;;;;;;5106125;28;20951;-54
2022/05/14 07:36:53;;;;;;;23.23;6.10;;;18.40;99.90;;;;;;5104076;28;20492;-54
2022/05/14 07:39:22;;;;;;;23.17;6.90;;;18.60;99.90;;;;;;5105219;28;20418;-54
2022/05/14 07:41:51;;;;;;;20.13;5.23;;;18.60;99.90;;;;;;5106976;28;20449;-54
2022/05/14 07:44:19;;;;;;;19.33;5.47;;;18.20;99.90;;;;;;5112776;27;20518;-55
2022/05/14 07:46:46;;;;;;;18.43;6.10;;;18.20;99.90;;;;;;5109849;28;20537;-54
2022/05/14 07:49:14;;;;;;;17.70;6.00;;;18.60;99.90;;;;;;5103677;28;20514;-54
2022/05/14 07:51:40;;;;;;;26.33;5.57;;;19.00;99.90;;;;;;5108514;27;20430;-54
2022/05/14 07:54:06;;;;;;;22.17;5.00;;;19.30;99.90;;;;;;5089014;28;20447;-54
2022/05/14 07:56:32;;;;;;;20.60;6.30;;;19.20;99.90;;;;;;5106028;28;20438;-54
2022/05/14 07:58:58;;;;;;;15.70;5.13;;;19.30;99.90;;;;;;5105532;28;20448;-54
2022/05/14 08:01:23;;;;;;;20.50;5.13;;;19.50;99.90;;;;;;5108153;27;20527;-54
2022/05/14 08:03:49;;;;;;;16.27;5.33;;;19.50;99.90;;;;;;5101094;28;20770;-54
2022/05/14 08:06:15;;;;;;;16.43;4.60;;;19.50;99.90;;;;;;5101109;28;20192;-54
2022/05/14 08:08:41;;;;;;;16.57;5.30;;;19.00;99.90;;;;;;5108699;28;20231;-55
2022/05/14 08:11:07;;;;;;;12.50;4.77;;;18.70;99.90;;;;;;5107916;27;20433;-54
2022/05/14 08:13:34;;;;;;;14.37;4.70;;;18.40;99.90;;;;;;5103118;27;20263;-54
2022/05/14 08:16:00;;;;;;;19.30;4.67;;;17.90;99.90;;;;;;5105002;28;20631;-54
2022/05/14 08:18:26;;;;;;;19.47;6.00;;;17.70;99.90;;;;;;5102739;27;20518;-54
2022/05/14 08:20:52;;;;;;;16.67;4.80;;;17.70;99.90;;;;;;5099682;28;20458;-54
2022/05/14 08:26:03;;;;;;;10.00;4.30;;;17.80;99.90;;;;;;5104118;28;20211;-54
2022/05/14 08:28:29;;;;;;;17.70;5.20;;;18.30;99.90;;;;;;5102279;28;20800;-53
2022/05/14 08:30:55;;;;;;;14.43;4.13;;;18.70;99.90;;;;;;5105672;28;20445;-55
2022/05/14 08:33:21;;;;;;;16.40;5.20;;;18.80;99.90;;;;;;5101008;28;20192;-53
2022/05/14 08:35:47;;;;;;;14.57;4.63;;;19.00;99.90;;;;;;5106794;28;20291;-54
2022/05/14 08:38:15;;;;;;;16.20;4.60;;;19.00;99.90;;;;;;5096997;28;20412;-54
2022/05/14 08:40:46;;;;;;;20.03;5.33;;;18.70;99.90;;;;;;5096230;27;20193;-54
2022/05/14 08:43:17;;;;;;;14.80;4.37;;;19.00;99.90;;;;;;5108751;28;20531;-54
2022/05/14 08:45:43;;;;;;;12.73;4.40;;;18.90;99.90;;;;;;5102905;28;20446;-54
2022/05/14 08:48:21;;;;;;;14.00;5.10;;;19.00;99.90;;;;;;5104857;28;20522;-53
2022/05/14 08:50:55;;;;;;;18.13;5.23;;;18.60;99.90;;;;;;5102564;27;20441;-54
2022/05/14 08:53:24;;;;;;;15.40;4.67;;;18.10;99.90;;;;;;5099998;27;20437;-53
2022/05/14 08:56:09;;;;;;;17.63;4.93;;;18.20;99.90;;;;;;5098531;27;20501;-53
2022/05/14 08:59:02;;;;;;;13.97;4.27;;;18.80;99.90;;;;;;5104253;28;20429;-54
2022/05/14 09:01:38;;;;;;;20.43;4.10;;;19.50;99.90;;;;;;5103495;28;20513;-55
2022/05/14 09:04:08;;;;;;;12.63;3.77;;;19.80;99.90;;;;;;5106082;28;20931;-54
2022/05/14 09:06:36;;;;;;;11.13;3.60;;;19.80;99.90;;;;;;5103538;28;20962;-54
2022/05/14 09:09:01;;;;;;;12.80;4.03;;;20.10;99.90;;;;;;5100700;28;20414;-53
2022/05/14 09:11:36;;;;;;;14.47;4.30;;;20.70;99.90;;;;;;5097223;28;20760;-53
2022/05/14 09:14:02;;;;;;;13.37;4.20;;;20.60;99.90;;;;;;5106554;28;20188;-54
2022/05/14 09:16:34;;;;;;;11.70;4.03;;;20.00;99.90;;;;;;5095443;28;21229;-54
2022/05/14 09:19:00;;;;;;;10.43;3.80;;;19.10;99.90;;;;;;5103664;28;20685;-55
2022/05/14 09:21:28;;;;;;;18.47;3.73;;;18.50;99.90;;;;;;5105366;28;20414;-54
2022/05/14 09:24:03;;;;;;;15.70;4.17;;;18.30;99.90;;;;;;5099311;28;20399;-53
2022/05/14 09:26:34;;;;;;;15.47;3.80;;;18.40;99.90;;;;;;5102352;28;20457;-53
2022/05/14 09:29:12;;;;;;;14.93;4.53;;;18.30;99.90;;;;;;5099784;28;20402;-54
2022/05/14 09:31:52;;;;;;;16.67;3.97;;;17.90;99.90;;;;;;5087260;28;20426;-54
2022/05/14 09:34:18;;;;;;;11.60;4.00;;;17.60;99.90;;;;;;5100085;27;21031;-53
2022/05/14 09:36:48;;;;;;;13.60;4.20;;;17.70;99.90;;;;;;5099745;27;21022;-54
2022/05/14 09:39:17;;;;;;;17.73;4.03;;;17.70;99.90;;;;;;5106409;27;20437;-60
2022/05/14 09:41:48;;;;;;;11.60;3.80;;;17.70;99.90;;;;;;5098235;28;20407;-54
2022/05/14 09:44:20;;;;;;;15.00;4.23;;;17.60;99.90;;;;;;5093016;28;20541;-54
2022/05/14 09:46:47;;;;;;;15.37;3.87;;;17.40;99.90;;;;;;5103699;28;20921;-55
2022/05/14 09:49:21;;;;;;;14.23;4.20;;;17.70;99.90;;;;;;5105526;28;20438;-54
2022/05/14 09:52:00;;;;;;;15.53;4.77;;;18.50;99.90;;;;;;5105413;27;20434;-53
2022/05/14 09:54:30;;;;;;;10.10;3.10;;;19.20;99.90;;;;;;5102110;28;20473;-54
2022/05/14 09:57:25;;;;;;;12.10;3.77;;;18.90;99.90;;;;;;5101781;28;20439;-57
2022/05/14 09:59:59;;;;;;;16.83;3.60;;;18.10;99.90;;;;;;5101857;28;20429;-53
2022/05/14 10:02:43;;;;;;;11.87;3.70;;;17.60;99.90;;;;;;5099977;28;20496;-54
2022/05/14 10:05:14;;;;;;;12.07;3.30;;;18.20;99.90;;;;;;5102964;28;20524;-54
2022/05/14 10:07:57;;;;;;;15.90;4.03;;;18.20;99.90;;;;;;5103828;28;20426;-54
2022/05/14 10:10:34;;;;;;;13.93;3.83;;;18.40;99.90;;;;;;5083526;28;20441;-53
2022/05/14 10:13:18;;;;;;;16.40;3.37;;;19.10;99.90;;;;;;5095113;27;21292;-54
2022/05/14 10:15:45;;;;;;;17.00;4.53;;;19.10;99.90;;;;;;5105366;28;20813;-54
2022/05/14 10:18:55;;;;;;;21.73;3.63;;;18.60;99.90;;;;;;5103950;28;20422;-54
2022/05/14 10:21:48;;;;;;;13.03;3.83;;;18.20;99.90;;;;;;5088932;28;20462;-54
2022/05/14 10:27:56;;;;;;;12.20;3.50;;;17.60;99.90;;;;;;5025959;28;20440;-53
2022/05/14 10:30:29;;;;;;;12.03;2.93;;;17.80;99.90;;;;;;5100452;28;20507;-53
2022/05/14 10:33:01;;;;;;;9.33;2.97;;;18.00;99.90;;;;;;5100302;28;20464;-54
2022/05/14 10:35:35;;;;;;;15.90;3.53;;;17.90;99.90;;;;;;5103281;28;20462;-54
2022/05/14 10:38:23;;;;;;;15.83;4.17;;;17.60;99.90;;;;;;5094924;28;20773;-54
2022/05/14 10:40:54;;;;;;;13.90;3.77;;;17.40;99.90;;;;;;5097690;28;20963;-54
2022/05/14 10:43:38;;;;;;;17.80;4.60;;;17.30;99.90;;;;;;5100119;28;20446;-53
2022/05/14 10:46:09;;;;;;;15.13;3.53;;;17.20;99.90;;;;;;5101825;28;21062;-53
2022/05/14 10:48:47;;;;;;;11.57;3.43;;;17.60;99.90;;;;;;5100989;28;20953;-54
2022/05/14 10:51:18;;;;;;;10.13;3.43;;;17.90;99.90;;;;;;5098708;28;20441;-54
2022/05/14 10:53:45;;;;;;;14.57;4.37;;;18.10;99.90;;;;;;5100741;28;20438;-54
2022/05/14 10:56:28;;;;;;;19.57;3.90;;;18.30;99.90;;;;;;5097458;28;20461;-54
2022/05/14 10:59:05;;;;;;;12.23;3.57;;;18.30;99.90;;;;;;5104261;28;20426;-57
2022/05/14 11:02:00;;;;;;;13.40;4.10;;;18.30;99.90;;;;;;5103236;28;20426;-53
2022/05/14 11:04:31;;;;;;;13.40;3.90;;;18.20;99.90;;;;;;5094701;28;20458;-54
2022/05/14 11:07:09;;;;;;;13.37;4.30;;;18.30;99.90;;;;;;5107423;27;20538;-54
2022/05/14 11:09:37;;;;;;;14.00;4.53;;;19.20;99.90;;;;;;5102591;27;20872;-53
2022/05/14 11:12:23;;;;;;;17.00;3.77;;;19.70;99.90;;;;;;5107165;28;20452;-54
2022/05/14 11:14:51;;;;;;;19.57;3.73;;;18.90;99.90;;;;;;5090523;28;20540;-53
2022/05/14 11:17:31;;;;;;;18.20;3.60;;;18.30;99.90;;;;;;5108581;27;20488;-53
2022/05/14 11:20:06;;;;;;;18.60;4.10;;;17.90;99.90;;;;;;5100243;28;20465;-54
2022/05/14 11:22:42;;;;;;;14.97;4.20;;;18.00;99.90;;;;;;5105907;28;21095;-54
2022/05/14 11:25:16;;;;;;;12.43;3.70;;;18.50;99.90;;;;;;5100155;28;20514;-54
2022/05/14 11:27:54;;;;;;;13.23;3.93;;;18.50;99.90;;;;;;5099212;28;21057;-54
2022/05/14 11:30:34;;;;;;;17.50;5.20;;;18.30;99.90;;;;;;5108358;28;20441;-54
2022/05/14 11:33:01;;;;;;;15.57;4.10;;;18.20;99.90;;;;;;5109871;28;20788;-54
2022/05/14 11:35:44;;;;;;;19.60;3.50;;;18.30;99.90;;;;;;5106471;27;20526;-54
2022/05/14 11:38:25;;;;;;;17.00;3.20;;;18.50;99.90;;;;;;5103250;28;20871;-55
2022/05/14 11:40:58;;;;;;;13.83;3.70;;;18.60;99.90;;;;;;5097384;28;20442;-53
2022/05/14 11:43:43;;;;;;;9.40;3.27;;;18.70;99.90;;;;;;5109072;28;20919;-55
2022/05/14 11:46:09;;;;;;;13.27;3.67;;;19.30;99.90;;;;;;5105359;28;20441;-54
2022/05/14 11:49:11;;;;;;;11.90;3.50;;;20.20;99.90;;;;;;5099061;28;21074;-53
2022/05/14 11:52:07;;;;;;;15.57;4.03;;;20.50;99.90;;;;;;5107013;28;20699;-54
2022/05/14 11:54:42;;;;;;;9.50;3.03;;;20.20;99.90;;;;;;5108510;28;20469;-53
2022/05/14 11:57:17;;;;;;;12.73;3.93;;;19.70;99.90;;;;;;5110278;28;20440;-53
2022/05/14 12:00:20;;;;;;;8.80;3.27;;;19.20;99.90;;;;;;5108551;27;20433;-54
2022/05/14 12:02:57;;;;;;;13.10;3.63;;;19.10;99.90;;;;;;5063282;28;20480;-53
2022/05/14 12:05:29;;;;;;;10.17;3.50;;;19.70;99.90;;;;;;5105432;28;20465;-54
2022/05/14 12:07:57;;;;;;;15.63;3.90;;;20.00;99.90;;;;;;5100271;28;20418;-54
2022/05/14 12:10:51;;;;;;;11.13;3.13;;;20.20;99.90;;;;;;5104412;28;20447;-54
2022/05/14 12:13:28;;;;;;;10.70;2.70;;;20.60;99.90;;;;;;5108874;28;20432;-54
2022/05/14 12:15:57;;;;;;;11.67;3.33;;;20.30;99.90;;;;;;5102827;28;20457;-54
2022/05/14 12:18:24;;;;;;;9.17;3.07;;;19.50;99.90;;;;;;5098731;28;20534;-53
2022/05/14 12:21:04;;;;;;;13.97;3.33;;;19.00;99.90;;;;;;5106473;28;20485;-53
2022/05/14 12:23:37;;;;;;;11.73;3.40;;;19.00;99.90;;;;;;5102916;28;20949;-54
2022/05/14 12:26:24;;;;;;;12.03;3.67;;;19.10;99.90;;;;;;5102906;28;20421;-53
2022/05/14 12:28:55;;;;;;;9.83;3.03;;;19.70;99.90;;;;;;5094292;28;20431;-54
2022/05/14 12:34:16;;;;;;;14.13;3.30;;;20.30;99.90;;;;;;5101538;28;20509;-53
2022/05/14 12:36:51;;;;;;;17.23;3.87;;;20.00;99.90;;;;;;5099269;28;20502;-53
2022/05/14 12:39:19;;;;;;;10.70;3.73;;;19.70;99.90;;;;;;5101402;28;20864;-57
2022/05/14 12:41:50;;;;;;;17.73;3.77;;;19.50;99.90;;;;;;5096633;28;21197;-54
2022/05/14 12:44:28;;;;;;;12.60;3.60;;;19.20;99.90;;;;;;5101911;28;20480;-54
2022/05/14 12:46:58;;;;;;;13.23;3.43;;;18.80;99.90;;;;;;5104566;28;20430;-57
2022/05/14 12:49:33;;;;;;;10.77;3.27;;;18.30;99.90;;;;;;5102116;28;20922;-54
2022/05/14 12:52:03;;;;;;;14.03;2.90;;;18.10;99.90;;;;;;5097848;28;20494;-54
2022/05/14 12:54:31;;;;;;;10.43;2.80;;;18.00;99.90;;;;;;5104287;27;20515;-54
2022/05/14 12:57:01;;;;;;;10.97;3.47;;;17.90;99.90;;;;;;5104207;28;20839;-54
2022/05/14 12:59:27;;;;;;;10.57;3.27;;;18.10;99.90;;;;;;5100769;28;20922;-53
2022/05/14 13:01:59;;;;;;;15.40;3.83;;;18.10;99.90;;;;;;5098916;28;20449;-54
2022/05/14 13:04:41;;;;;;;13.37;3.13;;;17.90;99.90;;;;;;5100240;28;20488;-54
2022/05/14 13:07:12;;;;;;;9.60;3.60;;;17.90;99.90;;;;;;5105908;28;20431;-54
2022/05/14 13:09:40;;;;;;;9.83;2.90;;;18.40;99.90;;;;;;5100388;28;20425;-54
2022/05/14 13:12:07;;;;;;;11.40;3.43;;;19.20;99.90;;;;;;5100898;28;20507;-53
2022/05/14 13:14:35;;;;;;;16.00;4.37;;;19.80;99.90;;;;;;5104006;28;20458;-54
2022/05/14 13:17:07;;;;;;;12.83;3.73;;;20.30;99.90;;;;;;5093991;28;20435;-53